sensor_id;sensor_type;location;lat;lon;timestamp;P1;durP1;ratioP1;P2;durP2;ratioP2
19032;SDS011;9649;51.042;13.804;2023-07-29T00:01:57;2.00;;;1.50;;
19032;SDS011;9649;51.042;13.804;2023-07-29T00:07:01;2.22;;;1.38;;
19032;SDS011;9649;51.042;13.804;2023-07-29T00:12:05;2.83;;;1.50;;
19032;SDS011;9649;51.042;13.804;2023-07-29T00:17:08;2.40;;;1.35;;
19032;SDS011;9649;51.042;13.804;2023-07-29T00:22:12;2.30;;;1.30;;
19032;SDS011;9649;51.042;13.804;2023-07-29T00:27:14;4.22;;;3.00;;
19032;SDS011;9649;51.042;13.804;2023-07-29T00:32:17;2.85;;;2.55;;
19032;SDS011;9649;51.042;13.804;2023-07-29T00:37:21;2.25;;;1.60;;
19032;SDS011;9649;51.042;13.804;2023-07-29T00:42:25;1.50;;;1.40;;
19032;SDS011;9649;51.042;13.804;2023-07-29T00:47:27;1.63;;;1.40;;
19032;SDS011;9649;51.042;13.804;2023-07-29T00:52:32;1.48;;;1.38;;
19032;SDS011;9649;51.042;13.804;2023-07-29T00:57:35;5.10;;;1.83;;
19032;SDS011;9649;51.042;13.804;2023-07-29T01:02:37;1.75;;;1.58;;
19032;SDS011;9649;51.042;13.804;2023-07-29T01:07:44;2.17;;;1.77;;
19032;SDS011;9649;51.042;13.804;2023-07-29T01:12:54;1.73;;;1.40;;
19032;SDS011;9649;51.042;13.804;2023-07-29T01:18:04;2.10;;;1.50;;
19032;SDS011;9649;51.042;13.804;2023-07-29T01:23:10;2.75;;;1.73;;
19032;SDS011;9649;51.042;13.804;2023-07-29T01:28:14;1.60;;;1.50;;
19032;SDS011;9649;51.042;13.804;2023-07-29T01:33:18;1.83;;;1.45;;
19032;SDS011;9649;51.042;13.804;2023-07-29T01:38:27;2.03;;;1.70;;
19032;SDS011;9649;51.042;13.804;2023-07-29T01:43:35;2.63;;;1.75;;
19032;SDS011;9649;51.042;13.804;2023-07-29T01:48:44;2.03;;;1.90;;
19032;SDS011;9649;51.042;13.804;2023-07-29T01:53:46;1.90;;;1.55;;
19032;SDS011;9649;51.042;13.804;2023-07-29T01:58:51;3.30;;;1.73;;
19032;SDS011;9649;51.042;13.804;2023-07-29T02:03:54;4.22;;;2.08;;
19032;SDS011;9649;51.042;13.804;2023-07-29T02:08:57;2.80;;;1.77;;
19032;SDS011;9649;51.042;13.804;2023-07-29T02:14:01;2.25;;;1.60;;
19032;SDS011;9649;51.042;13.804;2023-07-29T02:19:04;2.97;;;1.88;;
19032;SDS011;9649;51.042;13.804;2023-07-29T02:24:07;1.60;;;1.50;;
19032;SDS011;9649;51.042;13.804;2023-07-29T02:29:11;2.63;;;1.65;;
19032;SDS011;9649;51.042;13.804;2023-07-29T02:34:14;1.80;;;1.67;;
19032;SDS011;9649;51.042;13.804;2023-07-29T02:39:16;3.00;;;1.70;;
19032;SDS011;9649;51.042;13.804;2023-07-29T02:44:21;2.60;;;1.63;;
19032;SDS011;9649;51.042;13.804;2023-07-29T02:49:23;3.67;;;2.00;;
19032;SDS011;9649;51.042;13.804;2023-07-29T02:54:26;2.60;;;2.00;;
19032;SDS011;9649;51.042;13.804;2023-07-29T02:59:30;4.15;;;1.67;;
19032;SDS011;9649;51.042;13.804;2023-07-29T03:04:33;1.92;;;1.70;;
19032;SDS011;9649;51.042;13.804;2023-07-29T03:09:36;3.75;;;1.52;;
19032;SDS011;9649;51.042;13.804;2023-07-29T03:14:41;2.20;;;1.73;;
19032;SDS011;9649;51.042;13.804;2023-07-29T03:19:43;4.22;;;1.80;;
19032;SDS011;9649;51.042;13.804;2023-07-29T03:24:46;2.42;;;1.77;;
19032;SDS011;9649;51.042;13.804;2023-07-29T03:29:50;4.15;;;1.45;;
19032;SDS011;9649;51.042;13.804;2023-07-29T03:34:53;1.52;;;1.42;;
19032;SDS011;9649;51.042;13.804;2023-07-29T03:39:56;3.58;;;1.40;;
19032;SDS011;9649;51.042;13.804;2023-07-29T03:45:01;2.85;;;1.50;;
19032;SDS011;9649;51.042;13.804;2023-07-29T03:50:04;1.42;;;1.30;;
19032;SDS011;9649;51.042;13.804;2023-07-29T03:55:08;1.55;;;1.20;;
19032;SDS011;9649;51.042;13.804;2023-07-29T04:00:12;1.20;;;1.10;;
19032;SDS011;9649;51.042;13.804;2023-07-29T04:05:15;1.50;;;1.20;;
19032;SDS011;9649;51.042;13.804;2023-07-29T04:10:18;1.77;;;1.10;;
19032;SDS011;9649;51.042;13.804;2023-07-29T04:15:23;0.90;;;0.90;;
19032;SDS011;9649;51.042;13.804;2023-07-29T04:20:26;1.20;;;1.10;;
19032;SDS011;9649;51.042;13.804;2023-07-29T04:25:28;1.38;;;1.27;;
19032;SDS011;9649;51.042;13.804;2023-07-29T04:30:33;1.35;;;1.05;;
19032;SDS011;9649;51.042;13.804;2023-07-29T04:35:35;2.03;;;1.20;;
19032;SDS011;9649;51.042;13.804;2023-07-29T04:40:38;1.10;;;1.00;;
19032;SDS011;9649;51.042;13.804;2023-07-29T04:45:43;1.67;;;1.15;;
19032;SDS011;9649;51.042;13.804;2023-07-29T04:50:46;1.38;;;1.27;;
19032;SDS011;9649;51.042;13.804;2023-07-29T04:55:50;1.00;;;1.00;;
19032;SDS011;9649;51.042;13.804;2023-07-29T05:00:54;0.98;;;0.85;;
19032;SDS011;9649;51.042;13.804;2023-07-29T05:05:57;1.20;;;1.00;;
19032;SDS011;9649;51.042;13.804;2023-07-29T05:11:01;1.23;;;1.00;;
19032;SDS011;9649;51.042;13.804;2023-07-29T05:16:06;2.42;;;0.98;;
19032;SDS011;9649;51.042;13.804;2023-07-29T05:21:10;2.70;;;1.10;;
19032;SDS011;9649;51.042;13.804;2023-07-29T05:26:15;1.42;;;1.15;;
19032;SDS011;9649;51.042;13.804;2023-07-29T05:31:21;0.98;;;0.90;;
19032;SDS011;9649;51.042;13.804;2023-07-29T05:36:26;1.33;;;1.10;;
19032;SDS011;9649;51.042;13.804;2023-07-29T05:41:30;1.67;;;1.13;;
19032;SDS011;9649;51.042;13.804;2023-07-29T05:46:38;1.20;;;1.10;;
19032;SDS011;9649;51.042;13.804;2023-07-29T05:51:43;1.02;;;0.80;;
19032;SDS011;9649;51.042;13.804;2023-07-29T05:56:48;1.30;;;0.98;;
19032;SDS011;9649;51.042;13.804;2023-07-29T06:01:56;2.22;;;1.30;;
19032;SDS011;9649;51.042;13.804;2023-07-29T06:07:00;1.10;;;0.98;;
19032;SDS011;9649;51.042;13.804;2023-07-29T06:12:03;0.80;;;0.80;;
19032;SDS011;9649;51.042;13.804;2023-07-29T06:17:08;2.03;;;0.90;;
19032;SDS011;9649;51.042;13.804;2023-07-29T06:22:13;1.75;;;0.80;;
19032;SDS011;9649;51.042;13.804;2023-07-29T06:27:17;1.35;;;0.73;;
19032;SDS011;9649;51.042;13.804;2023-07-29T06:32:23;0.90;;;0.90;;
19032;SDS011;9649;51.042;13.804;2023-07-29T06:37:26;1.50;;;1.20;;
19032;SDS011;9649;51.042;13.804;2023-07-29T06:42:29;1.17;;;1.00;;
19032;SDS011;9649;51.042;13.804;2023-07-29T06:47:37;0.75;;;0.75;;
19032;SDS011;9649;51.042;13.804;2023-07-29T06:52:44;0.90;;;0.85;;
19032;SDS011;9649;51.042;13.804;2023-07-29T06:57:50;0.70;;;0.70;;
19032;SDS011;9649;51.042;13.804;2023-07-29T07:02:57;1.00;;;0.90;;
19032;SDS011;9649;51.042;13.804;2023-07-29T07:08:01;0.70;;;0.70;;
19032;SDS011;9649;51.042;13.804;2023-07-29T07:13:04;0.82;;;0.82;;
19032;SDS011;9649;51.042;13.804;2023-07-29T07:18:09;1.33;;;0.85;;
19032;SDS011;9649;51.042;13.804;2023-07-29T07:23:14;0.85;;;0.80;;
19032;SDS011;9649;51.042;13.804;2023-07-29T07:28:19;1.17;;;0.88;;
19032;SDS011;9649;51.042;13.804;2023-07-29T07:33:23;3.20;;;0.90;;
19032;SDS011;9649;51.042;13.804;2023-07-29T07:38:26;0.90;;;0.80;;
19032;SDS011;9649;51.042;13.804;2023-07-29T07:43:29;1.50;;;0.95;;
19032;SDS011;9649;51.042;13.804;2023-07-29T07:48:34;0.73;;;0.73;;
19032;SDS011;9649;51.042;13.804;2023-07-29T07:53:37;0.88;;;0.88;;
19032;SDS011;9649;51.042;13.804;2023-07-29T07:58:42;0.93;;;0.70;;
19032;SDS011;9649;51.042;13.804;2023-07-29T08:03:46;0.90;;;0.90;;
19032;SDS011;9649;51.042;13.804;2023-07-29T08:08:50;1.10;;;1.00;;
19032;SDS011;9649;51.042;13.804;2023-07-29T08:13:53;1.05;;;0.80;;
19032;SDS011;9649;51.042;13.804;2023-07-29T08:18:57;0.70;;;0.70;;
19032;SDS011;9649;51.042;13.804;2023-07-29T08:24:01;0.60;;;0.60;;
19032;SDS011;9649;51.042;13.804;2023-07-29T08:29:04;0.63;;;0.63;;
19032;SDS011;9649;51.042;13.804;2023-07-29T08:34:08;1.23;;;0.98;;
19032;SDS011;9649;51.042;13.804;2023-07-29T08:39:12;0.88;;;0.60;;
19032;SDS011;9649;51.042;13.804;2023-07-29T08:44:16;0.60;;;0.60;;
19032;SDS011;9649;51.042;13.804;2023-07-29T08:49:25;1.00;;;0.68;;
19032;SDS011;9649;51.042;13.804;2023-07-29T08:54:29;0.52;;;0.52;;
19032;SDS011;9649;51.042;13.804;2023-07-29T08:59:33;0.50;;;0.50;;
19032;SDS011;9649;51.042;13.804;2023-07-29T09:04:37;0.50;;;0.50;;
19032;SDS011;9649;51.042;13.804;2023-07-29T09:09:41;2.05;;;0.60;;
19032;SDS011;9649;51.042;13.804;2023-07-29T09:14:44;1.38;;;0.80;;
19032;SDS011;9649;51.042;13.804;2023-07-29T09:19:49;0.85;;;0.63;;
19032;SDS011;9649;51.042;13.804;2023-07-29T09:24:53;0.77;;;0.77;;
19032;SDS011;9649;51.042;13.804;2023-07-29T09:29:59;0.80;;;0.80;;
19032;SDS011;9649;51.042;13.804;2023-07-29T09:35:05;0.73;;;0.73;;
19032;SDS011;9649;51.042;13.804;2023-07-29T09:40:14;0.70;;;0.70;;
19032;SDS011;9649;51.042;13.804;2023-07-29T09:45:19;0.63;;;0.63;;
19032;SDS011;9649;51.042;13.804;2023-07-29T09:50:27;1.17;;;1.05;;
19032;SDS011;9649;51.042;13.804;2023-07-29T09:55:32;0.80;;;0.80;;
19032;SDS011;9649;51.042;13.804;2023-07-29T10:00:36;1.10;;;1.00;;
19032;SDS011;9649;51.042;13.804;2023-07-29T10:05:42;0.70;;;0.70;;
19032;SDS011;9649;51.042;13.804;2023-07-29T10:10:46;0.80;;;0.80;;
19032;SDS011;9649;51.042;13.804;2023-07-29T10:15:52;1.27;;;0.73;;
19032;SDS011;9649;51.042;13.804;2023-07-29T10:20:59;2.85;;;1.30;;
19032;SDS011;9649;51.042;13.804;2023-07-29T10:26:03;1.55;;;1.38;;
19032;SDS011;9649;51.042;13.804;2023-07-29T10:31:08;1.73;;;0.98;;
19032;SDS011;9649;51.042;13.804;2023-07-29T10:36:15;1.33;;;1.10;;
19032;SDS011;9649;51.042;13.804;2023-07-29T10:41:23;1.10;;;0.80;;
19032;SDS011;9649;51.042;13.804;2023-07-29T10:46:26;0.95;;;0.90;;
19032;SDS011;9649;51.042;13.804;2023-07-29T10:51:34;1.02;;;0.70;;
19032;SDS011;9649;51.042;13.804;2023-07-29T10:56:56;0.77;;;0.77;;
19032;SDS011;9649;51.042;13.804;2023-07-29T11:02:01;0.77;;;0.77;;
19032;SDS011;9649;51.042;13.804;2023-07-29T11:12:42;4.50;;;1.10;;
19032;SDS011;9649;51.042;13.804;2023-07-29T11:17:49;1.77;;;1.10;;
19032;SDS011;9649;51.042;13.804;2023-07-29T11:22:56;1.02;;;0.82;;
19032;SDS011;9649;51.042;13.804;2023-07-29T11:28:00;2.03;;;0.70;;
19032;SDS011;9649;51.042;13.804;2023-07-29T11:33:07;1.67;;;1.10;;
19032;SDS011;9649;51.042;13.804;2023-07-29T11:38:15;1.90;;;0.77;;
19032;SDS011;9649;51.042;13.804;2023-07-29T11:43:19;3.42;;;1.00;;
19032;SDS011;9649;51.042;13.804;2023-07-29T11:48:28;2.25;;;0.90;;
19032;SDS011;9649;51.042;13.804;2023-07-29T11:53:34;1.05;;;0.80;;
19032;SDS011;9649;51.042;13.804;2023-07-29T11:58:38;0.77;;;0.70;;
19032;SDS011;9649;51.042;13.804;2023-07-29T12:03:41;1.67;;;0.75;;
19032;SDS011;9649;51.042;13.804;2023-07-29T12:08:46;4.47;;;1.00;;
19032;SDS011;9649;51.042;13.804;2023-07-29T12:13:53;2.15;;;1.25;;
19032;SDS011;9649;51.042;13.804;2023-07-29T12:18:56;5.40;;;1.00;;
19032;SDS011;9649;51.042;13.804;2023-07-29T12:24:04;1.48;;;0.82;;
19032;SDS011;9649;51.042;13.804;2023-07-29T12:29:11;1.70;;;0.82;;
19032;SDS011;9649;51.042;13.804;2023-07-29T12:46:21;1.92;;;1.10;;
19032;SDS011;9649;51.042;13.804;2023-07-29T12:51:35;0.88;;;0.80;;
19032;SDS011;9649;51.042;13.804;2023-07-29T12:57:20;1.08;;;0.90;;
19032;SDS011;9649;51.042;13.804;2023-07-29T13:03:05;1.17;;;0.70;;
19032;SDS011;9649;51.042;13.804;2023-07-29T13:08:33;1.00;;;0.80;;
19032;SDS011;9649;51.042;13.804;2023-07-29T13:14:00;1.02;;;0.60;;
19032;SDS011;9649;51.042;13.804;2023-07-29T13:19:23;0.88;;;0.88;;
19032;SDS011;9649;51.042;13.804;2023-07-29T13:24:41;0.55;;;0.55;;
19032;SDS011;9649;51.042;13.804;2023-07-29T13:36:06;1.35;;;0.70;;
19032;SDS011;9649;51.042;13.804;2023-07-29T13:41:18;1.15;;;0.68;;
19032;SDS011;9649;51.042;13.804;2023-07-29T13:52:41;0.80;;;0.80;;
19032;SDS011;9649;51.042;13.804;2023-07-29T13:58:34;0.82;;;0.82;;
19032;SDS011;9649;51.042;13.804;2023-07-29T14:10:34;0.77;;;0.65;;
19032;SDS011;9649;51.042;13.804;2023-07-29T14:16:35;0.70;;;0.70;;
19032;SDS011;9649;51.042;13.804;2023-07-29T14:22:07;0.90;;;0.90;;
19032;SDS011;9649;51.042;13.804;2023-07-29T14:27:36;0.52;;;0.52;;
19032;SDS011;9649;51.042;13.804;2023-07-29T14:32:42;2.47;;;0.80;;
19032;SDS011;9649;51.042;13.804;2023-07-29T14:37:45;1.63;;;0.73;;
19032;SDS011;9649;51.042;13.804;2023-07-29T14:42:49;0.80;;;0.70;;
19032;SDS011;9649;51.042;13.804;2023-07-29T14:47:52;0.60;;;0.60;;
19032;SDS011;9649;51.042;13.804;2023-07-29T14:52:55;2.10;;;0.88;;
19032;SDS011;9649;51.042;13.804;2023-07-29T14:57:59;2.38;;;0.90;;
19032;SDS011;9649;51.042;13.804;2023-07-29T15:03:03;0.90;;;0.90;;
19032;SDS011;9649;51.042;13.804;2023-07-29T15:08:06;1.77;;;0.80;;
19032;SDS011;9649;51.042;13.804;2023-07-29T15:13:10;0.98;;;0.77;;
19032;SDS011;9649;51.042;13.804;2023-07-29T15:18:13;1.48;;;0.60;;
19032;SDS011;9649;51.042;13.804;2023-07-29T15:23:16;1.20;;;0.73;;
19032;SDS011;9649;51.042;13.804;2023-07-29T15:28:20;0.80;;;0.80;;
19032;SDS011;9649;51.042;13.804;2023-07-29T15:33:23;0.77;;;0.77;;
19032;SDS011;9649;51.042;13.804;2023-07-29T15:38:26;0.80;;;0.80;;
19032;SDS011;9649;51.042;13.804;2023-07-29T15:43:30;2.40;;;0.80;;
19032;SDS011;9649;51.042;13.804;2023-07-29T15:48:33;0.80;;;0.80;;
19032;SDS011;9649;51.042;13.804;2023-07-29T15:53:36;0.80;;;0.80;;
19032;SDS011;9649;51.042;13.804;2023-07-29T15:58:40;0.77;;;0.77;;
19032;SDS011;9649;51.042;13.804;2023-07-29T16:03:43;0.82;;;0.73;;
19032;SDS011;9649;51.042;13.804;2023-07-29T16:08:46;0.90;;;0.90;;
19032;SDS011;9649;51.042;13.804;2023-07-29T16:13:50;2.67;;;1.10;;
19032;SDS011;9649;51.042;13.804;2023-07-29T16:18:53;1.00;;;1.00;;
19032;SDS011;9649;51.042;13.804;2023-07-29T16:23:59;2.60;;;0.95;;
19032;SDS011;9649;51.042;13.804;2023-07-29T16:29:05;1.30;;;1.20;;
19032;SDS011;9649;51.042;13.804;2023-07-29T16:34:09;2.65;;;1.45;;
19032;SDS011;9649;51.042;13.804;2023-07-29T16:39:12;1.10;;;1.00;;
19032;SDS011;9649;51.042;13.804;2023-07-29T16:44:16;20.50;;;1.92;;
19032;SDS011;9649;51.042;13.804;2023-07-29T16:49:19;8.88;;;1.00;;
19032;SDS011;9649;51.042;13.804;2023-07-29T16:54:23;3.17;;;1.17;;
19032;SDS011;9649;51.042;13.804;2023-07-29T16:59:27;2.50;;;1.20;;
19032;SDS011;9649;51.042;13.804;2023-07-29T17:04:30;3.78;;;1.30;;
19032;SDS011;9649;51.042;13.804;2023-07-29T17:09:32;2.95;;;1.30;;
19032;SDS011;9649;51.042;13.804;2023-07-29T17:14:37;5.90;;;1.60;;
19032;SDS011;9649;51.042;13.804;2023-07-29T17:19:40;3.72;;;1.73;;
19032;SDS011;9649;51.042;13.804;2023-07-29T17:24:43;5.22;;;1.77;;
19032;SDS011;9649;51.042;13.804;2023-07-29T17:30:00;3.97;;;1.70;;
19032;SDS011;9649;51.042;13.804;2023-07-29T17:35:25;3.25;;;1.80;;
19032;SDS011;9649;51.042;13.804;2023-07-29T17:40:47;4.68;;;1.88;;
19032;SDS011;9649;51.042;13.804;2023-07-29T17:46:02;5.20;;;3.05;;
19032;SDS011;9649;51.042;13.804;2023-07-29T17:51:05;4.85;;;2.30;;
19032;SDS011;9649;51.042;13.804;2023-07-29T17:56:08;6.68;;;3.30;;
19032;SDS011;9649;51.042;13.804;2023-07-29T18:01:16;4.20;;;1.85;;
19032;SDS011;9649;51.042;13.804;2023-07-29T18:06:22;5.07;;;2.17;;
19032;SDS011;9649;51.042;13.804;2023-07-29T18:11:31;4.40;;;1.90;;
19032;SDS011;9649;51.042;13.804;2023-07-29T18:16:40;5.47;;;2.10;;
19032;SDS011;9649;51.042;13.804;2023-07-29T18:21:43;6.40;;;2.40;;
19032;SDS011;9649;51.042;13.804;2023-07-29T18:26:46;5.15;;;2.28;;
19032;SDS011;9649;51.042;13.804;2023-07-29T18:31:50;5.70;;;2.33;;
19032;SDS011;9649;51.042;13.804;2023-07-29T18:36:53;4.03;;;1.80;;
19032;SDS011;9649;51.042;13.804;2023-07-29T18:42:08;4.65;;;2.30;;
19032;SDS011;9649;51.042;13.804;2023-07-29T18:47:26;7.57;;;2.15;;
19032;SDS011;9649;51.042;13.804;2023-07-29T18:52:45;3.60;;;2.00;;
19032;SDS011;9649;51.042;13.804;2023-07-29T18:57:48;3.97;;;1.80;;
19032;SDS011;9649;51.042;13.804;2023-07-29T19:02:53;7.78;;;2.67;;
19032;SDS011;9649;51.042;13.804;2023-07-29T19:07:59;5.45;;;2.60;;
19032;SDS011;9649;51.042;13.804;2023-07-29T19:13:02;4.35;;;2.58;;
19032;SDS011;9649;51.042;13.804;2023-07-29T19:18:06;8.00;;;3.00;;
19032;SDS011;9649;51.042;13.804;2023-07-29T19:23:09;5.20;;;2.60;;
19032;SDS011;9649;51.042;13.804;2023-07-29T19:28:12;4.13;;;2.08;;
19032;SDS011;9649;51.042;13.804;2023-07-29T19:33:16;3.22;;;2.20;;
19032;SDS011;9649;51.042;13.804;2023-07-29T19:38:19;4.20;;;2.70;;
19032;SDS011;9649;51.042;13.804;2023-07-29T19:43:22;10.88;;;6.90;;
19032;SDS011;9649;51.042;13.804;2023-07-29T19:48:27;7.63;;;4.10;;
19032;SDS011;9649;51.042;13.804;2023-07-29T19:53:30;6.78;;;3.33;;
19032;SDS011;9649;51.042;13.804;2023-07-29T19:58:34;4.38;;;2.55;;
19032;SDS011;9649;51.042;13.804;2023-07-29T20:03:39;4.15;;;2.25;;
19032;SDS011;9649;51.042;13.804;2023-07-29T20:08:42;5.90;;;3.60;;
19032;SDS011;9649;51.042;13.804;2023-07-29T20:13:45;4.32;;;1.63;;
19032;SDS011;9649;51.042;13.804;2023-07-29T20:18:49;1.45;;;1.35;;
19032;SDS011;9649;51.042;13.804;2023-07-29T20:23:52;5.00;;;1.38;;
19032;SDS011;9649;51.042;13.804;2023-07-29T20:28:56;2.75;;;1.42;;
19032;SDS011;9649;51.042;13.804;2023-07-29T20:34:00;2.35;;;1.60;;
19032;SDS011;9649;51.042;13.804;2023-07-29T20:39:03;2.97;;;1.70;;
19032;SDS011;9649;51.042;13.804;2023-07-29T20:44:06;5.50;;;1.50;;
19032;SDS011;9649;51.042;13.804;2023-07-29T20:49:13;2.78;;;1.50;;
19032;SDS011;9649;51.042;13.804;2023-07-29T20:54:16;2.85;;;1.70;;
19032;SDS011;9649;51.042;13.804;2023-07-29T20:59:18;4.85;;;1.73;;
19032;SDS011;9649;51.042;13.804;2023-07-29T21:04:23;2.17;;;1.45;;
19032;SDS011;9649;51.042;13.804;2023-07-29T21:09:25;4.57;;;1.58;;
19032;SDS011;9649;51.042;13.804;2023-07-29T21:14:28;2.70;;;1.70;;
19032;SDS011;9649;51.042;13.804;2023-07-29T21:19:32;2.25;;;1.83;;
19032;SDS011;9649;51.042;13.804;2023-07-29T21:24:35;3.15;;;2.03;;
19032;SDS011;9649;51.042;13.804;2023-07-29T21:29:38;2.45;;;1.80;;
19032;SDS011;9649;51.042;13.804;2023-07-29T21:34:42;5.22;;;1.80;;
19032;SDS011;9649;51.042;13.804;2023-07-29T21:39:45;2.20;;;1.80;;
19032;SDS011;9649;51.042;13.804;2023-07-29T21:44:48;3.47;;;2.25;;
19032;SDS011;9649;51.042;13.804;2023-07-29T21:49:52;5.65;;;2.38;;
19032;SDS011;9649;51.042;13.804;2023-07-29T21:54:55;3.35;;;2.00;;
19032;SDS011;9649;51.042;13.804;2023-07-29T21:59:58;2.90;;;2.42;;
19032;SDS011;9649;51.042;13.804;2023-07-29T22:05:03;3.10;;;2.10;;
19032;SDS011;9649;51.042;13.804;2023-07-29T22:10:07;4.10;;;2.30;;
19032;SDS011;9649;51.042;13.804;2023-07-29T22:15:10;5.70;;;2.28;;
19032;SDS011;9649;51.042;13.804;2023-07-29T22:20:14;4.15;;;2.20;;
19032;SDS011;9649;51.042;13.804;2023-07-29T22:25:17;3.00;;;2.10;;
19032;SDS011;9649;51.042;13.804;2023-07-29T22:30:20;4.05;;;2.10;;
19032;SDS011;9649;51.042;13.804;2023-07-29T22:35:28;3.05;;;1.90;;
19032;SDS011;9649;51.042;13.804;2023-07-29T22:40:31;5.82;;;2.22;;
19032;SDS011;9649;51.042;13.804;2023-07-29T22:45:33;4.57;;;2.80;;
19032;SDS011;9649;51.042;13.804;2023-07-29T22:50:38;4.22;;;2.92;;
19032;SDS011;9649;51.042;13.804;2023-07-29T22:55:41;4.45;;;3.15;;
19032;SDS011;9649;51.042;13.804;2023-07-29T23:00:46;5.60;;;3.35;;
19032;SDS011;9649;51.042;13.804;2023-07-29T23:05:52;6.43;;;3.60;;
19032;SDS011;9649;51.042;13.804;2023-07-29T23:10:59;5.28;;;3.38;;
19032;SDS011;9649;51.042;13.804;2023-07-29T23:16:02;5.13;;;3.60;;
19032;SDS011;9649;51.042;13.804;2023-07-29T23:21:07;4.53;;;3.15;;
19032;SDS011;9649;51.042;13.804;2023-07-29T23:26:10;6.32;;;2.60;;
19032;SDS011;9649;51.042;13.804;2023-07-29T23:31:12;4.55;;;2.95;;
19032;SDS011;9649;51.042;13.804;2023-07-29T23:36:17;4.55;;;2.75;;
19032;SDS011;9649;51.042;13.804;2023-07-29T23:41:20;6.28;;;2.92;;
19032;SDS011;9649;51.042;13.804;2023-07-29T23:46:22;5.47;;;2.83;;
19032;SDS011;9649;51.042;13.804;2023-07-29T23:51:26;4.40;;;2.78;;
19032;SDS011;9649;51.042;13.804;2023-07-29T23:56:29;13.15;;;3.15;;
